sensor_id;sensor_type;location;lat;lon;timestamp;temperature;humidity
61841;DHT22;47773;53.174;6.614;2023-07-13T00:02:23;17.00;99.90
61841;DHT22;47773;53.174;6.614;2023-07-13T00:04:49;17.00;99.90
61841;DHT22;47773;53.174;6.614;2023-07-13T00:07:16;17.00;99.90
61841;DHT22;47773;53.174;6.614;2023-07-13T00:09:44;17.00;99.90
61841;DHT22;47773;53.174;6.614;2023-07-13T00:12:23;16.90;99.90
61841;DHT22;47773;53.174;6.614;2023-07-13T00:14:49;16.90;99.90
61841;DHT22;47773;53.174;6.614;2023-07-13T00:17:15;16.90;99.90
61841;DHT22;47773;53.174;6.614;2023-07-13T00:19:41;16.90;99.90
61841;DHT22;47773;53.174;6.614;2023-07-13T00:22:07;16.80;99.90
61841;DHT22;47773;53.174;6.614;2023-07-13T00:24:33;16.80;99.90
61841;DHT22;47773;53.174;6.614;2023-07-13T00:26:58;16.80;99.90
61841;DHT22;47773;53.174;6.614;2023-07-13T00:29:26;16.70;99.90
61841;DHT22;47773;53.174;6.614;2023-07-13T00:31:52;16.70;99.90
61841;DHT22;47773;53.174;6.614;2023-07-13T00:34:17;16.70;99.90
61841;DHT22;47773;53.174;6.614;2023-07-13T00:36:43;16.70;99.90
61841;DHT22;47773;53.174;6.614;2023-07-13T00:39:09;16.70;99.90
61841;DHT22;47773;53.174;6.614;2023-07-13T00:41:35;16.70;99.90
61841;DHT22;47773;53.174;6.614;2023-07-13T00:44:02;16.60;99.90
61841;DHT22;47773;53.174;6.614;2023-07-13T00:46:31;16.70;99.90
61841;DHT22;47773;53.174;6.614;2023-07-13T00:49:01;16.80;99.90
61841;DHT22;47773;53.174;6.614;2023-07-13T00:51:32;16.80;99.90
61841;DHT22;47773;53.174;6.614;2023-07-13T00:54:01;16.80;99.90
61841;DHT22;47773;53.174;6.614;2023-07-13T00:56:30;16.70;99.90
61841;DHT22;47773;53.174;6.614;2023-07-13T00:58:57;16.80;99.90
61841;DHT22;47773;53.174;6.614;2023-07-13T01:01:24;16.70;99.90
61841;DHT22;47773;53.174;6.614;2023-07-13T01:03:50;16.80;99.90
61841;DHT22;47773;53.174;6.614;2023-07-13T01:06:16;16.70;99.90
61841;DHT22;47773;53.174;6.614;2023-07-13T01:08:43;16.80;99.90
61841;DHT22;47773;53.174;6.614;2023-07-13T01:11:08;16.80;99.90
61841;DHT22;47773;53.174;6.614;2023-07-13T01:13:34;16.80;99.90
61841;DHT22;47773;53.174;6.614;2023-07-13T01:16:05;16.80;99.90
61841;DHT22;47773;53.174;6.614;2023-07-13T01:18:37;16.70;99.90
61841;DHT22;47773;53.174;6.614;2023-07-13T01:21:04;16.70;99.90
61841;DHT22;47773;53.174;6.614;2023-07-13T01:23:31;16.70;99.90
61841;DHT22;47773;53.174;6.614;2023-07-13T01:25:58;16.60;99.90
61841;DHT22;47773;53.174;6.614;2023-07-13T01:28:25;16.70;99.90
61841;DHT22;47773;53.174;6.614;2023-07-13T01:30:53;16.70;99.90
61841;DHT22;47773;53.174;6.614;2023-07-13T01:33:19;16.60;99.90
61841;DHT22;47773;53.174;6.614;2023-07-13T01:35:46;16.60;99.90
61841;DHT22;47773;53.174;6.614;2023-07-13T01:38:14;16.60;99.90
61841;DHT22;47773;53.174;6.614;2023-07-13T01:40:40;16.60;99.90
61841;DHT22;47773;53.174;6.614;2023-07-13T01:43:06;16.60;99.90
61841;DHT22;47773;53.174;6.614;2023-07-13T01:45:32;16.60;99.90
61841;DHT22;47773;53.174;6.614;2023-07-13T01:47:58;16.70;99.90
61841;DHT22;47773;53.174;6.614;2023-07-13T01:50:24;16.70;99.90
61841;DHT22;47773;53.174;6.614;2023-07-13T01:52:50;16.70;99.90
61841;DHT22;47773;53.174;6.614;2023-07-13T01:55:16;16.70;99.90
61841;DHT22;47773;53.174;6.614;2023-07-13T01:57:42;16.70;99.90
61841;DHT22;47773;53.174;6.614;2023-07-13T02:00:10;16.70;99.90
61841;DHT22;47773;53.174;6.614;2023-07-13T02:02:36;16.70;99.90
61841;DHT22;47773;53.174;6.614;2023-07-13T02:05:01;16.70;99.90
61841;DHT22;47773;53.174;6.614;2023-07-13T02:07:27;16.70;99.90
61841;DHT22;47773;53.174;6.614;2023-07-13T02:09:53;16.60;99.90
61841;DHT22;47773;53.174;6.614;2023-07-13T02:12:19;16.60;99.90
61841;DHT22;47773;53.174;6.614;2023-07-13T02:14:45;16.70;99.90
61841;DHT22;47773;53.174;6.614;2023-07-13T02:17:12;16.60;99.90
61841;DHT22;47773;53.174;6.614;2023-07-13T02:19:38;16.70;99.90
61841;DHT22;47773;53.174;6.614;2023-07-13T02:22:04;16.70;99.90
61841;DHT22;47773;53.174;6.614;2023-07-13T02:24:29;16.70;99.90
61841;DHT22;47773;53.174;6.614;2023-07-13T02:26:55;16.70;99.90
61841;DHT22;47773;53.174;6.614;2023-07-13T02:29:21;16.70;99.90
61841;DHT22;47773;53.174;6.614;2023-07-13T02:31:47;16.80;99.90
61841;DHT22;47773;53.174;6.614;2023-07-13T02:34:12;16.70;99.90
61841;DHT22;47773;53.174;6.614;2023-07-13T02:36:38;16.70;99.90
61841;DHT22;47773;53.174;6.614;2023-07-13T02:39:05;16.70;99.90
61841;DHT22;47773;53.174;6.614;2023-07-13T02:41:31;16.70;99.90
61841;DHT22;47773;53.174;6.614;2023-07-13T02:43:58;16.60;99.90
61841;DHT22;47773;53.174;6.614;2023-07-13T02:46:33;16.60;99.90
61841;DHT22;47773;53.174;6.614;2023-07-13T02:48:59;16.60;99.90
61841;DHT22;47773;53.174;6.614;2023-07-13T02:51:25;16.60;99.90
61841;DHT22;47773;53.174;6.614;2023-07-13T02:53:51;16.60;99.90
61841;DHT22;47773;53.174;6.614;2023-07-13T02:56:21;16.60;99.90
61841;DHT22;47773;53.174;6.614;2023-07-13T02:58:47;16.50;99.90
61841;DHT22;47773;53.174;6.614;2023-07-13T03:01:13;16.60;99.90
61841;DHT22;47773;53.174;6.614;2023-07-13T03:03:45;16.50;99.90
61841;DHT22;47773;53.174;6.614;2023-07-13T03:06:11;16.50;99.90
61841;DHT22;47773;53.174;6.614;2023-07-13T03:08:37;16.50;99.90
61841;DHT22;47773;53.174;6.614;2023-07-13T03:11:05;16.50;99.90
61841;DHT22;47773;53.174;6.614;2023-07-13T03:13:31;16.50;99.90
61841;DHT22;47773;53.174;6.614;2023-07-13T03:15:57;16.40;99.90
61841;DHT22;47773;53.174;6.614;2023-07-13T03:18:23;16.40;99.90
61841;DHT22;47773;53.174;6.614;2023-07-13T03:20:52;16.40;99.90
61841;DHT22;47773;53.174;6.614;2023-07-13T03:23:19;16.40;99.90
61841;DHT22;47773;53.174;6.614;2023-07-13T03:25:45;16.30;99.90
61841;DHT22;47773;53.174;6.614;2023-07-13T03:28:12;16.30;99.90
61841;DHT22;47773;53.174;6.614;2023-07-13T03:30:38;16.30;99.90
61841;DHT22;47773;53.174;6.614;2023-07-13T03:33:04;16.20;99.90
61841;DHT22;47773;53.174;6.614;2023-07-13T03:35:30;16.20;99.90
61841;DHT22;47773;53.174;6.614;2023-07-13T03:37:58;16.20;99.90
61841;DHT22;47773;53.174;6.614;2023-07-13T03:40:25;16.10;99.90
61841;DHT22;47773;53.174;6.614;2023-07-13T03:42:52;16.10;99.90
61841;DHT22;47773;53.174;6.614;2023-07-13T03:45:18;16.10;99.90
61841;DHT22;47773;53.174;6.614;2023-07-13T03:47:44;16.10;99.90
61841;DHT22;47773;53.174;6.614;2023-07-13T03:50:10;16.10;99.90
61841;DHT22;47773;53.174;6.614;2023-07-13T03:52:36;16.10;99.90
61841;DHT22;47773;53.174;6.614;2023-07-13T03:55:02;16.10;99.90
61841;DHT22;47773;53.174;6.614;2023-07-13T03:57:28;16.10;99.90
61841;DHT22;47773;53.174;6.614;2023-07-13T03:59:54;16.10;99.90
61841;DHT22;47773;53.174;6.614;2023-07-13T04:02:20;16.10;99.90
61841;DHT22;47773;53.174;6.614;2023-07-13T04:04:46;16.10;99.90
61841;DHT22;47773;53.174;6.614;2023-07-13T04:07:12;16.10;99.90
61841;DHT22;47773;53.174;6.614;2023-07-13T04:09:38;16.10;99.90
61841;DHT22;47773;53.174;6.614;2023-07-13T04:12:04;16.10;99.90
61841;DHT22;47773;53.174;6.614;2023-07-13T04:14:30;16.10;99.90
61841;DHT22;47773;53.174;6.614;2023-07-13T04:16:56;16.10;99.90
61841;DHT22;47773;53.174;6.614;2023-07-13T04:19:22;16.10;99.90
61841;DHT22;47773;53.174;6.614;2023-07-13T04:21:48;16.10;99.90
61841;DHT22;47773;53.174;6.614;2023-07-13T04:24:14;16.10;99.90
61841;DHT22;47773;53.174;6.614;2023-07-13T04:26:40;16.10;99.90
61841;DHT22;47773;53.174;6.614;2023-07-13T04:29:06;16.10;99.90
61841;DHT22;47773;53.174;6.614;2023-07-13T04:31:33;16.10;99.90
61841;DHT22;47773;53.174;6.614;2023-07-13T04:33:58;16.10;99.90
61841;DHT22;47773;53.174;6.614;2023-07-13T04:36:25;16.20;99.90
61841;DHT22;47773;53.174;6.614;2023-07-13T04:38:54;16.30;99.90
61841;DHT22;47773;53.174;6.614;2023-07-13T04:41:21;16.40;99.90
61841;DHT22;47773;53.174;6.614;2023-07-13T04:43:47;16.40;99.90
61841;DHT22;47773;53.174;6.614;2023-07-13T04:46:16;16.50;99.90
61841;DHT22;47773;53.174;6.614;2023-07-13T04:48:46;16.50;99.90
61841;DHT22;47773;53.174;6.614;2023-07-13T04:51:12;16.50;99.90
61841;DHT22;47773;53.174;6.614;2023-07-13T04:53:37;16.60;99.90
61841;DHT22;47773;53.174;6.614;2023-07-13T04:56:04;16.60;99.90
61841;DHT22;47773;53.174;6.614;2023-07-13T04:58:30;16.60;99.90
61841;DHT22;47773;53.174;6.614;2023-07-13T05:01:06;16.70;99.90
61841;DHT22;47773;53.174;6.614;2023-07-13T05:03:32;16.70;99.90
61841;DHT22;47773;53.174;6.614;2023-07-13T05:06:03;16.80;99.90
61841;DHT22;47773;53.174;6.614;2023-07-13T05:08:29;16.70;99.90
61841;DHT22;47773;53.174;6.614;2023-07-13T05:10:55;16.80;99.90
61841;DHT22;47773;53.174;6.614;2023-07-13T05:13:22;16.80;99.90
61841;DHT22;47773;53.174;6.614;2023-07-13T05:15:56;16.80;99.90
61841;DHT22;47773;53.174;6.614;2023-07-13T05:18:22;16.80;99.90
61841;DHT22;47773;53.174;6.614;2023-07-13T05:21:01;16.80;99.90
61841;DHT22;47773;53.174;6.614;2023-07-13T05:23:28;16.80;99.90
61841;DHT22;47773;53.174;6.614;2023-07-13T05:25:54;16.90;99.90
61841;DHT22;47773;53.174;6.614;2023-07-13T05:28:21;16.90;99.90
61841;DHT22;47773;53.174;6.614;2023-07-13T05:30:48;17.00;99.90
61841;DHT22;47773;53.174;6.614;2023-07-13T05:33:14;17.00;99.90
61841;DHT22;47773;53.174;6.614;2023-07-13T05:35:40;17.00;99.90
61841;DHT22;47773;53.174;6.614;2023-07-13T05:38:06;17.10;99.90
61841;DHT22;47773;53.174;6.614;2023-07-13T05:40:32;17.10;99.90
61841;DHT22;47773;53.174;6.614;2023-07-13T05:42:58;17.10;99.90
61841;DHT22;47773;53.174;6.614;2023-07-13T05:45:23;17.20;99.90
61841;DHT22;47773;53.174;6.614;2023-07-13T05:47:49;17.20;99.90
61841;DHT22;47773;53.174;6.614;2023-07-13T05:50:15;17.20;99.90
61841;DHT22;47773;53.174;6.614;2023-07-13T05:52:41;17.20;99.90
61841;DHT22;47773;53.174;6.614;2023-07-13T05:55:07;17.30;99.90
61841;DHT22;47773;53.174;6.614;2023-07-13T05:57:33;17.30;99.90
61841;DHT22;47773;53.174;6.614;2023-07-13T05:59:58;17.40;99.90
61841;DHT22;47773;53.174;6.614;2023-07-13T06:02:24;17.40;99.90
61841;DHT22;47773;53.174;6.614;2023-07-13T06:04:51;17.50;99.90
61841;DHT22;47773;53.174;6.614;2023-07-13T06:07:17;17.50;99.90
61841;DHT22;47773;53.174;6.614;2023-07-13T06:09:43;17.60;99.90
61841;DHT22;47773;53.174;6.614;2023-07-13T06:12:09;17.70;99.90
61841;DHT22;47773;53.174;6.614;2023-07-13T06:14:35;17.70;99.90
61841;DHT22;47773;53.174;6.614;2023-07-13T06:17:01;17.80;99.90
61841;DHT22;47773;53.174;6.614;2023-07-13T06:19:26;17.90;99.90
61841;DHT22;47773;53.174;6.614;2023-07-13T06:21:52;17.90;99.90
61841;DHT22;47773;53.174;6.614;2023-07-13T06:24:18;18.00;99.90
61841;DHT22;47773;53.174;6.614;2023-07-13T06:26:43;18.00;99.90
61841;DHT22;47773;53.174;6.614;2023-07-13T06:29:09;18.10;99.90
61841;DHT22;47773;53.174;6.614;2023-07-13T06:31:35;18.10;99.90
61841;DHT22;47773;53.174;6.614;2023-07-13T06:34:01;18.20;99.90
61841;DHT22;47773;53.174;6.614;2023-07-13T06:36:26;18.20;99.90
61841;DHT22;47773;53.174;6.614;2023-07-13T06:38:52;18.30;99.90
61841;DHT22;47773;53.174;6.614;2023-07-13T06:41:18;18.30;99.90
61841;DHT22;47773;53.174;6.614;2023-07-13T06:43:43;18.30;99.90
61841;DHT22;47773;53.174;6.614;2023-07-13T06:46:10;18.40;99.90
61841;DHT22;47773;53.174;6.614;2023-07-13T06:48:35;18.50;99.90
61841;DHT22;47773;53.174;6.614;2023-07-13T06:51:02;18.60;99.90
61841;DHT22;47773;53.174;6.614;2023-07-13T06:53:27;18.70;99.90
61841;DHT22;47773;53.174;6.614;2023-07-13T06:55:53;18.80;99.90
61841;DHT22;47773;53.174;6.614;2023-07-13T06:58:19;18.90;99.90
61841;DHT22;47773;53.174;6.614;2023-07-13T07:00:46;19.00;99.90
61841;DHT22;47773;53.174;6.614;2023-07-13T07:03:12;19.20;99.90
61841;DHT22;47773;53.174;6.614;2023-07-13T07:05:38;19.30;99.90
61841;DHT22;47773;53.174;6.614;2023-07-13T07:08:04;19.40;99.90
61841;DHT22;47773;53.174;6.614;2023-07-13T07:10:30;19.60;99.90
61841;DHT22;47773;53.174;6.614;2023-07-13T07:12:57;19.60;99.90
61841;DHT22;47773;53.174;6.614;2023-07-13T07:15:23;19.60;99.90
61841;DHT22;47773;53.174;6.614;2023-07-13T07:17:49;19.50;99.90
61841;DHT22;47773;53.174;6.614;2023-07-13T07:20:14;19.60;99.90
61841;DHT22;47773;53.174;6.614;2023-07-13T07:22:40;19.60;99.90
61841;DHT22;47773;53.174;6.614;2023-07-13T07:25:06;19.60;99.90
61841;DHT22;47773;53.174;6.614;2023-07-13T07:27:32;19.50;99.90
61841;DHT22;47773;53.174;6.614;2023-07-13T07:29:58;19.40;99.90
61841;DHT22;47773;53.174;6.614;2023-07-13T07:32:24;19.30;99.90
61841;DHT22;47773;53.174;6.614;2023-07-13T07:34:50;19.20;99.90
61841;DHT22;47773;53.174;6.614;2023-07-13T07:37:16;19.10;99.90
61841;DHT22;47773;53.174;6.614;2023-07-13T07:39:43;19.20;99.90
61841;DHT22;47773;53.174;6.614;2023-07-13T07:42:09;19.10;99.90
61841;DHT22;47773;53.174;6.614;2023-07-13T07:44:34;19.10;99.90
61841;DHT22;47773;53.174;6.614;2023-07-13T07:47:01;19.00;99.90
61841;DHT22;47773;53.174;6.614;2023-07-13T07:49:26;19.00;99.90
61841;DHT22;47773;53.174;6.614;2023-07-13T07:51:52;19.00;99.90
61841;DHT22;47773;53.174;6.614;2023-07-13T07:54:18;19.10;99.90
61841;DHT22;47773;53.174;6.614;2023-07-13T07:56:44;19.20;99.90
61841;DHT22;47773;53.174;6.614;2023-07-13T07:59:09;19.10;99.90
61841;DHT22;47773;53.174;6.614;2023-07-13T08:01:36;19.10;99.90
61841;DHT22;47773;53.174;6.614;2023-07-13T08:04:02;19.00;99.90
61841;DHT22;47773;53.174;6.614;2023-07-13T08:06:28;19.00;99.90
61841;DHT22;47773;53.174;6.614;2023-07-13T08:08:54;18.90;99.90
61841;DHT22;47773;53.174;6.614;2023-07-13T08:11:21;19.00;99.90
61841;DHT22;47773;53.174;6.614;2023-07-13T08:13:47;19.00;99.90
61841;DHT22;47773;53.174;6.614;2023-07-13T08:16:12;19.00;99.90
61841;DHT22;47773;53.174;6.614;2023-07-13T08:18:38;18.90;99.90
61841;DHT22;47773;53.174;6.614;2023-07-13T08:21:07;18.90;99.90
61841;DHT22;47773;53.174;6.614;2023-07-13T08:23:34;18.80;99.90
61841;DHT22;47773;53.174;6.614;2023-07-13T08:26:01;19.00;99.90
61841;DHT22;47773;53.174;6.614;2023-07-13T08:28:27;19.10;99.90
61841;DHT22;47773;53.174;6.614;2023-07-13T08:30:53;19.20;99.90
61841;DHT22;47773;53.174;6.614;2023-07-13T08:33:21;19.40;99.90
61841;DHT22;47773;53.174;6.614;2023-07-13T08:35:49;19.60;99.90
61841;DHT22;47773;53.174;6.614;2023-07-13T08:38:17;19.60;99.90
61841;DHT22;47773;53.174;6.614;2023-07-13T08:40:44;19.70;99.90
61841;DHT22;47773;53.174;6.614;2023-07-13T08:43:16;19.80;99.90
61841;DHT22;47773;53.174;6.614;2023-07-13T08:45:43;19.90;99.90
61841;DHT22;47773;53.174;6.614;2023-07-13T08:48:18;20.10;99.90
61841;DHT22;47773;53.174;6.614;2023-07-13T08:53:15;20.20;99.90
61841;DHT22;47773;53.174;6.614;2023-07-13T08:55:42;20.30;99.90
61841;DHT22;47773;53.174;6.614;2023-07-13T08:58:15;20.40;99.90
61841;DHT22;47773;53.174;6.614;2023-07-13T09:03:24;20.60;99.90
61841;DHT22;47773;53.174;6.614;2023-07-13T09:05:57;20.70;99.90
61841;DHT22;47773;53.174;6.614;2023-07-13T09:11:49;20.70;99.90
61841;DHT22;47773;53.174;6.614;2023-07-13T09:14:04;20.70;99.90
61841;DHT22;47773;53.174;6.614;2023-07-13T09:16:33;20.60;99.90
61841;DHT22;47773;53.174;6.614;2023-07-13T09:19:04;20.40;99.90
61841;DHT22;47773;53.174;6.614;2023-07-13T09:21:33;20.40;99.90
61841;DHT22;47773;53.174;6.614;2023-07-13T09:27:22;20.50;99.90
61841;DHT22;47773;53.174;6.614;2023-07-13T09:29:57;20.40;99.90
61841;DHT22;47773;53.174;6.614;2023-07-13T09:32:25;20.30;99.90
61841;DHT22;47773;53.174;6.614;2023-07-13T09:34:53;20.30;99.90
61841;DHT22;47773;53.174;6.614;2023-07-13T09:37:22;20.30;99.90
61841;DHT22;47773;53.174;6.614;2023-07-13T09:39:49;20.20;99.90
61841;DHT22;47773;53.174;6.614;2023-07-13T09:42:18;20.20;99.90
61841;DHT22;47773;53.174;6.614;2023-07-13T09:50:00;19.90;99.90
61841;DHT22;47773;53.174;6.614;2023-07-13T09:52:27;19.90;99.90
61841;DHT22;47773;53.174;6.614;2023-07-13T09:54:54;19.90;99.90
61841;DHT22;47773;53.174;6.614;2023-07-13T09:57:27;19.90;99.90
61841;DHT22;47773;53.174;6.614;2023-07-13T09:59:55;19.90;99.90
61841;DHT22;47773;53.174;6.614;2023-07-13T10:02:33;20.00;99.90
61841;DHT22;47773;53.174;6.614;2023-07-13T10:05:13;20.10;99.90
61841;DHT22;47773;53.174;6.614;2023-07-13T10:07:43;20.50;99.90
61841;DHT22;47773;53.174;6.614;2023-07-13T10:10:20;21.10;99.90
61841;DHT22;47773;53.174;6.614;2023-07-13T10:12:47;21.70;99.90
61841;DHT22;47773;53.174;6.614;2023-07-13T10:15:19;22.20;99.90
61841;DHT22;47773;53.174;6.614;2023-07-13T10:17:46;22.40;99.90
61841;DHT22;47773;53.174;6.614;2023-07-13T10:20:12;22.70;99.90
61841;DHT22;47773;53.174;6.614;2023-07-13T10:23:04;22.80;99.90
61841;DHT22;47773;53.174;6.614;2023-07-13T10:25:38;23.00;99.90
61841;DHT22;47773;53.174;6.614;2023-07-13T10:28:33;23.10;99.90
61841;DHT22;47773;53.174;6.614;2023-07-13T10:31:01;22.90;99.90
61841;DHT22;47773;53.174;6.614;2023-07-13T10:33:28;22.30;99.90
61841;DHT22;47773;53.174;6.614;2023-07-13T10:38:34;21.80;99.90
61841;DHT22;47773;53.174;6.614;2023-07-13T10:41:06;22.20;99.90
61841;DHT22;47773;53.174;6.614;2023-07-13T10:43:47;22.50;99.90
61841;DHT22;47773;53.174;6.614;2023-07-13T10:46:18;23.10;99.90
61841;DHT22;47773;53.174;6.614;2023-07-13T10:48:48;23.40;99.90
61841;DHT22;47773;53.174;6.614;2023-07-13T10:51:17;23.70;99.90
61841;DHT22;47773;53.174;6.614;2023-07-13T10:53:43;23.70;99.90
61841;DHT22;47773;53.174;6.614;2023-07-13T10:56:35;23.40;99.90
61841;DHT22;47773;53.174;6.614;2023-07-13T10:59:39;23.40;99.90
61841;DHT22;47773;53.174;6.614;2023-07-13T11:02:26;23.40;99.90
61841;DHT22;47773;53.174;6.614;2023-07-13T11:04:55;23.30;99.90
61841;DHT22;47773;53.174;6.614;2023-07-13T11:07:29;22.90;99.90
61841;DHT22;47773;53.174;6.614;2023-07-13T11:09:59;22.60;99.90
61841;DHT22;47773;53.174;6.614;2023-07-13T11:17:47;23.40;99.90
61841;DHT22;47773;53.174;6.614;2023-07-13T11:25:39;24.50;99.50
61841;DHT22;47773;53.174;6.614;2023-07-13T11:38:42;25.00;96.90
61841;DHT22;47773;53.174;6.614;2023-07-13T11:43:44;25.40;93.80
61841;DHT22;47773;53.174;6.614;2023-07-13T11:46:15;24.90;94.80
61841;DHT22;47773;53.174;6.614;2023-07-13T11:48:42;24.60;95.10
61841;DHT22;47773;53.174;6.614;2023-07-13T11:51:25;24.20;95.50
61841;DHT22;47773;53.174;6.614;2023-07-13T11:53:53;23.60;95.20
61841;DHT22;47773;53.174;6.614;2023-07-13T11:56:19;23.40;96.20
61841;DHT22;47773;53.174;6.614;2023-07-13T11:58:50;23.70;96.10
61841;DHT22;47773;53.174;6.614;2023-07-13T12:01:21;23.90;95.40
61841;DHT22;47773;53.174;6.614;2023-07-13T12:03:48;24.30;95.30
61841;DHT22;47773;53.174;6.614;2023-07-13T12:06:40;24.50;94.50
61841;DHT22;47773;53.174;6.614;2023-07-13T12:09:13;24.70;94.30
61841;DHT22;47773;53.174;6.614;2023-07-13T12:11:42;24.70;93.40
61841;DHT22;47773;53.174;6.614;2023-07-13T12:14:16;24.70;93.70
61841;DHT22;47773;53.174;6.614;2023-07-13T12:16:42;24.70;93.10
61841;DHT22;47773;53.174;6.614;2023-07-13T12:19:21;24.50;93.20
61841;DHT22;47773;53.174;6.614;2023-07-13T12:21:47;24.60;92.10
61841;DHT22;47773;53.174;6.614;2023-07-13T12:24:17;24.40;92.20
61841;DHT22;47773;53.174;6.614;2023-07-13T12:26:46;24.20;92.30
61841;DHT22;47773;53.174;6.614;2023-07-13T12:29:16;24.30;92.40
61841;DHT22;47773;53.174;6.614;2023-07-13T12:31:45;24.40;92.40
61841;DHT22;47773;53.174;6.614;2023-07-13T12:34:23;24.60;92.40
61841;DHT22;47773;53.174;6.614;2023-07-13T12:36:50;24.70;91.60
61841;DHT22;47773;53.174;6.614;2023-07-13T12:39:24;24.80;91.70
61841;DHT22;47773;53.174;6.614;2023-07-13T12:41:52;24.80;90.90
61841;DHT22;47773;53.174;6.614;2023-07-13T12:44:25;24.80;91.20
61841;DHT22;47773;53.174;6.614;2023-07-13T12:46:55;24.70;91.10
61841;DHT22;47773;53.174;6.614;2023-07-13T12:49:28;24.30;91.70
61841;DHT22;47773;53.174;6.614;2023-07-13T12:51:59;24.00;91.50
61841;DHT22;47773;53.174;6.614;2023-07-13T12:54:26;24.00;91.50
61841;DHT22;47773;53.174;6.614;2023-07-13T12:56:53;24.30;91.70
61841;DHT22;47773;53.174;6.614;2023-07-13T12:59:22;24.60;91.80
61841;DHT22;47773;53.174;6.614;2023-07-13T13:01:49;24.50;91.90
61841;DHT22;47773;53.174;6.614;2023-07-13T13:04:15;24.40;92.20
61841;DHT22;47773;53.174;6.614;2023-07-13T13:06:42;24.40;92.80
61841;DHT22;47773;53.174;6.614;2023-07-13T13:09:13;24.30;93.10
61841;DHT22;47773;53.174;6.614;2023-07-13T13:11:40;24.40;92.90
61841;DHT22;47773;53.174;6.614;2023-07-13T13:14:06;24.60;92.90
61841;DHT22;47773;53.174;6.614;2023-07-13T13:16:43;24.70;93.00
61841;DHT22;47773;53.174;6.614;2023-07-13T13:19:14;24.30;93.10
61841;DHT22;47773;53.174;6.614;2023-07-13T13:21:42;24.30;93.60
61841;DHT22;47773;53.174;6.614;2023-07-13T13:24:16;24.50;93.80
61841;DHT22;47773;53.174;6.614;2023-07-13T13:26:43;24.70;92.60
61841;DHT22;47773;53.174;6.614;2023-07-13T13:29:30;24.70;93.10
61841;DHT22;47773;53.174;6.614;2023-07-13T13:31:56;24.50;92.40
61841;DHT22;47773;53.174;6.614;2023-07-13T13:34:24;24.40;93.10
61841;DHT22;47773;53.174;6.614;2023-07-13T13:36:51;24.50;93.40
61841;DHT22;47773;53.174;6.614;2023-07-13T13:39:32;24.30;93.40
61841;DHT22;47773;53.174;6.614;2023-07-13T13:41:59;24.20;93.30
61841;DHT22;47773;53.174;6.614;2023-07-13T13:44:25;24.20;93.50
61841;DHT22;47773;53.174;6.614;2023-07-13T13:46:53;24.10;93.40
61841;DHT22;47773;53.174;6.614;2023-07-13T13:49:25;23.90;93.60
61841;DHT22;47773;53.174;6.614;2023-07-13T13:51:52;23.90;93.80
61841;DHT22;47773;53.174;6.614;2023-07-13T13:54:19;23.80;93.90
61841;DHT22;47773;53.174;6.614;2023-07-13T13:56:48;23.60;94.10
61841;DHT22;47773;53.174;6.614;2023-07-13T13:59:14;23.40;94.70
61841;DHT22;47773;53.174;6.614;2023-07-13T14:01:42;23.30;94.90
61841;DHT22;47773;53.174;6.614;2023-07-13T14:04:19;23.10;95.00
61841;DHT22;47773;53.174;6.614;2023-07-13T14:06:45;23.10;95.00
61841;DHT22;47773;53.174;6.614;2023-07-13T14:09:13;23.10;95.30
61841;DHT22;47773;53.174;6.614;2023-07-13T14:11:41;23.20;95.00
61841;DHT22;47773;53.174;6.614;2023-07-13T14:14:22;23.10;94.90
61841;DHT22;47773;53.174;6.614;2023-07-13T14:16:49;23.20;94.80
61841;DHT22;47773;53.174;6.614;2023-07-13T14:19:19;23.30;95.00
61841;DHT22;47773;53.174;6.614;2023-07-13T14:21:45;23.40;95.10
61841;DHT22;47773;53.174;6.614;2023-07-13T14:24:13;23.40;95.40
61841;DHT22;47773;53.174;6.614;2023-07-13T14:26:40;23.40;95.30
61841;DHT22;47773;53.174;6.614;2023-07-13T14:29:18;23.40;94.90
61841;DHT22;47773;53.174;6.614;2023-07-13T14:31:44;23.40;94.90
61841;DHT22;47773;53.174;6.614;2023-07-13T14:34:11;23.40;95.10
61841;DHT22;47773;53.174;6.614;2023-07-13T14:36:43;23.40;95.00
61841;DHT22;47773;53.174;6.614;2023-07-13T14:39:22;23.50;94.90
61841;DHT22;47773;53.174;6.614;2023-07-13T14:41:51;23.50;94.20
61841;DHT22;47773;53.174;6.614;2023-07-13T14:44:20;23.40;94.60
61841;DHT22;47773;53.174;6.614;2023-07-13T14:46:46;23.30;94.80
61841;DHT22;47773;53.174;6.614;2023-07-13T14:51:49;23.20;94.70
61841;DHT22;47773;53.174;6.614;2023-07-13T14:54:14;23.10;95.00
61841;DHT22;47773;53.174;6.614;2023-07-13T14:56:40;22.90;95.00
61841;DHT22;47773;53.174;6.614;2023-07-13T14:59:06;22.80;95.20
61841;DHT22;47773;53.174;6.614;2023-07-13T15:01:34;22.80;95.30
61841;DHT22;47773;53.174;6.614;2023-07-13T15:04:01;22.70;95.00
61841;DHT22;47773;53.174;6.614;2023-07-13T15:06:27;22.70;94.80
61841;DHT22;47773;53.174;6.614;2023-07-13T15:08:54;22.60;94.80
61841;DHT22;47773;53.174;6.614;2023-07-13T15:11:21;22.60;94.80
61841;DHT22;47773;53.174;6.614;2023-07-13T15:13:47;22.50;94.90
61841;DHT22;47773;53.174;6.614;2023-07-13T15:16:16;22.60;94.80
61841;DHT22;47773;53.174;6.614;2023-07-13T15:18:44;22.70;95.00
61841;DHT22;47773;53.174;6.614;2023-07-13T15:21:11;22.70;95.20
61841;DHT22;47773;53.174;6.614;2023-07-13T15:23:41;22.70;95.50
61841;DHT22;47773;53.174;6.614;2023-07-13T15:26:12;22.70;95.80
61841;DHT22;47773;53.174;6.614;2023-07-13T15:28:40;22.80;95.70
61841;DHT22;47773;53.174;6.614;2023-07-13T15:31:18;22.70;95.90
61841;DHT22;47773;53.174;6.614;2023-07-13T15:33:44;22.50;95.60
61841;DHT22;47773;53.174;6.614;2023-07-13T15:36:10;22.40;95.90
61841;DHT22;47773;53.174;6.614;2023-07-13T15:38:36;22.40;96.10
61841;DHT22;47773;53.174;6.614;2023-07-13T15:43:41;22.30;96.80
61841;DHT22;47773;53.174;6.614;2023-07-13T15:46:07;22.30;96.90
61841;DHT22;47773;53.174;6.614;2023-07-13T15:48:33;22.30;96.90
61841;DHT22;47773;53.174;6.614;2023-07-13T15:51:03;22.30;96.90
61841;DHT22;47773;53.174;6.614;2023-07-13T15:53:34;22.30;97.10
61841;DHT22;47773;53.174;6.614;2023-07-13T15:56:04;22.20;97.30
61841;DHT22;47773;53.174;6.614;2023-07-13T15:58:36;22.20;97.50
61841;DHT22;47773;53.174;6.614;2023-07-13T16:01:03;22.20;97.70
61841;DHT22;47773;53.174;6.614;2023-07-13T16:03:29;22.20;98.10
61841;DHT22;47773;53.174;6.614;2023-07-13T16:05:56;22.10;97.80
61841;DHT22;47773;53.174;6.614;2023-07-13T16:08:27;22.00;97.80
61841;DHT22;47773;53.174;6.614;2023-07-13T16:10:55;22.00;97.60
61841;DHT22;47773;53.174;6.614;2023-07-13T16:13:21;22.10;97.60
61841;DHT22;47773;53.174;6.614;2023-07-13T16:15:50;22.20;97.60
61841;DHT22;47773;53.174;6.614;2023-07-13T16:18:16;22.20;97.70
61841;DHT22;47773;53.174;6.614;2023-07-13T16:20:43;22.10;97.50
61841;DHT22;47773;53.174;6.614;2023-07-13T16:23:11;22.00;97.30
61841;DHT22;47773;53.174;6.614;2023-07-13T16:25:37;22.10;97.10